Terminal Aerodrome Forecast
Issued by NWS Cleveland, OH

Home | Current Version | Previous Version | Graphics & Text | Print | Product List | Glossary On
Versions: 1 2 3 4 5 6 7 8 9 10 11 12 13 14 15 16 17
000
FTUS41 KCLE 250713 AAB
TAFMFD
TAF AMD
KMFD 250713Z 2507/2606 25010KT P6SM VCSH SCT035 BKN060
     FM250800 25010G18KT P6SM FEW020 BKN080
     FM251200 25015G25KT P6SM OVC020
     FM260000 27012G20KT P6SM BKN020=

USA.gov is the U.S. government's official web portal to all federal, state and local government web resources and services.